sensor_id;sensor_type;location;lat;lon;timestamp;P1;durP1;ratioP1;P2;durP2;ratioP2
55224;SDS011;41091;49.400;8.684;2022-12-18T00:01:35;53.10;;;22.52;;
55224;SDS011;41091;49.400;8.684;2022-12-18T00:04:02;59.38;;;22.05;;
55224;SDS011;41091;49.400;8.684;2022-12-18T00:06:29;52.25;;;20.17;;
55224;SDS011;41091;49.400;8.684;2022-12-18T00:08:55;54.55;;;22.38;;
55224;SDS011;41091;49.400;8.684;2022-12-18T00:11:23;49.75;;;20.67;;
55224;SDS011;41091;49.400;8.684;2022-12-18T00:13:50;61.55;;;20.85;;
55224;SDS011;41091;49.400;8.684;2022-12-18T00:16:17;49.25;;;22.92;;
55224;SDS011;41091;49.400;8.684;2022-12-18T00:21:15;59.47;;;21.77;;
55224;SDS011;41091;49.400;8.684;2022-12-18T00:23:41;52.63;;;18.98;;
55224;SDS011;41091;49.400;8.684;2022-12-18T00:26:10;52.08;;;19.45;;
55224;SDS011;41091;49.400;8.684;2022-12-18T00:28:37;66.03;;;21.08;;
55224;SDS011;41091;49.400;8.684;2022-12-18T00:31:06;50.55;;;22.60;;
55224;SDS011;41091;49.400;8.684;2022-12-18T00:33:33;52.03;;;19.90;;
55224;SDS011;41091;49.400;8.684;2022-12-18T00:36:00;56.42;;;23.48;;
55224;SDS011;41091;49.400;8.684;2022-12-18T00:38:28;48.58;;;19.50;;
55224;SDS011;41091;49.400;8.684;2022-12-18T00:40:53;49.08;;;18.13;;
55224;SDS011;41091;49.400;8.684;2022-12-18T00:43:19;53.40;;;19.75;;
55224;SDS011;41091;49.400;8.684;2022-12-18T00:45:44;50.70;;;20.33;;
55224;SDS011;41091;49.400;8.684;2022-12-18T00:48:10;50.30;;;18.73;;
55224;SDS011;41091;49.400;8.684;2022-12-18T00:50:38;53.50;;;19.30;;
55224;SDS011;41091;49.400;8.684;2022-12-18T00:53:03;40.33;;;17.45;;
55224;SDS011;41091;49.400;8.684;2022-12-18T00:55:31;53.15;;;19.20;;
55224;SDS011;41091;49.400;8.684;2022-12-18T00:57:56;48.28;;;20.25;;
55224;SDS011;41091;49.400;8.684;2022-12-18T01:00:24;51.60;;;18.13;;
55224;SDS011;41091;49.400;8.684;2022-12-18T01:02:49;46.30;;;19.40;;
55224;SDS011;41091;49.400;8.684;2022-12-18T01:05:15;55.20;;;18.33;;
55224;SDS011;41091;49.400;8.684;2022-12-18T01:07:40;56.20;;;21.67;;
55224;SDS011;41091;49.400;8.684;2022-12-18T01:10:07;44.58;;;19.13;;
55224;SDS011;41091;49.400;8.684;2022-12-18T01:12:33;52.05;;;20.90;;
55224;SDS011;41091;49.400;8.684;2022-12-18T01:14:59;45.47;;;19.02;;
55224;SDS011;41091;49.400;8.684;2022-12-18T01:17:24;48.58;;;19.05;;
55224;SDS011;41091;49.400;8.684;2022-12-18T01:19:50;55.88;;;20.55;;
55224;SDS011;41091;49.400;8.684;2022-12-18T01:22:17;57.35;;;21.45;;
55224;SDS011;41091;49.400;8.684;2022-12-18T01:24:43;53.92;;;20.33;;
55224;SDS011;41091;49.400;8.684;2022-12-18T01:27:08;54.00;;;19.95;;
55224;SDS011;41091;49.400;8.684;2022-12-18T01:29:33;49.92;;;19.67;;
55224;SDS011;41091;49.400;8.684;2022-12-18T01:31:59;45.85;;;20.23;;
55224;SDS011;41091;49.400;8.684;2022-12-18T01:34:24;57.60;;;22.90;;
55224;SDS011;41091;49.400;8.684;2022-12-18T01:36:51;46.60;;;17.80;;
55224;SDS011;41091;49.400;8.684;2022-12-18T01:39:17;42.47;;;16.75;;
55224;SDS011;41091;49.400;8.684;2022-12-18T01:41:42;51.20;;;20.38;;
55224;SDS011;41091;49.400;8.684;2022-12-18T01:50:04;43.80;;;17.35;;
55224;SDS011;41091;49.400;8.684;2022-12-18T01:52:34;45.97;;;18.27;;
55224;SDS011;41091;49.400;8.684;2022-12-18T01:55:01;51.85;;;18.08;;
55224;SDS011;41091;49.400;8.684;2022-12-18T01:57:28;42.80;;;18.13;;
55224;SDS011;41091;49.400;8.684;2022-12-18T01:59:53;44.13;;;18.20;;
55224;SDS011;41091;49.400;8.684;2022-12-18T02:02:22;45.30;;;20.20;;
55224;SDS011;41091;49.400;8.684;2022-12-18T02:04:48;44.40;;;18.30;;
55224;SDS011;41091;49.400;8.684;2022-12-18T02:07:24;49.35;;;21.50;;
55224;SDS011;41091;49.400;8.684;2022-12-18T02:10:04;47.05;;;20.45;;
55224;SDS011;41091;49.400;8.684;2022-12-18T02:17:57;44.78;;;18.15;;
55224;SDS011;41091;49.400;8.684;2022-12-18T02:20:31;43.40;;;18.98;;
55224;SDS011;41091;49.400;8.684;2022-12-18T02:28:49;50.50;;;19.52;;
55224;SDS011;41091;49.400;8.684;2022-12-18T02:31:19;38.08;;;18.08;;
55224;SDS011;41091;49.400;8.684;2022-12-18T02:33:49;44.17;;;16.55;;
55224;SDS011;41091;49.400;8.684;2022-12-18T02:36:15;51.33;;;20.00;;
55224;SDS011;41091;49.400;8.684;2022-12-18T02:38:41;44.97;;;18.95;;
55224;SDS011;41091;49.400;8.684;2022-12-18T02:41:07;48.67;;;18.50;;
55224;SDS011;41091;49.400;8.684;2022-12-18T02:43:33;53.30;;;18.88;;
55224;SDS011;41091;49.400;8.684;2022-12-18T02:46:01;46.38;;;19.17;;
55224;SDS011;41091;49.400;8.684;2022-12-18T02:49:12;42.45;;;16.88;;
55224;SDS011;41091;49.400;8.684;2022-12-18T02:51:44;58.20;;;21.10;;
55224;SDS011;41091;49.400;8.684;2022-12-18T02:54:19;52.30;;;17.95;;
55224;SDS011;41091;49.400;8.684;2022-12-18T02:56:50;52.95;;;17.67;;
55224;SDS011;41091;49.400;8.684;2022-12-18T02:59:18;37.50;;;17.25;;
55224;SDS011;41091;49.400;8.684;2022-12-18T03:01:54;43.58;;;16.88;;
55224;SDS011;41091;49.400;8.684;2022-12-18T03:06:53;46.63;;;19.10;;
55224;SDS011;41091;49.400;8.684;2022-12-18T03:09:27;53.85;;;18.83;;
55224;SDS011;41091;49.400;8.684;2022-12-18T03:12:01;46.60;;;16.27;;
55224;SDS011;41091;49.400;8.684;2022-12-18T03:17:22;44.92;;;18.83;;
55224;SDS011;41091;49.400;8.684;2022-12-18T03:19:48;36.92;;;19.00;;
55224;SDS011;41091;49.400;8.684;2022-12-18T03:22:14;48.70;;;19.38;;
55224;SDS011;41091;49.400;8.684;2022-12-18T03:24:40;52.83;;;18.90;;
55224;SDS011;41091;49.400;8.684;2022-12-18T03:27:09;49.08;;;17.52;;
55224;SDS011;41091;49.400;8.684;2022-12-18T03:29:43;39.08;;;16.73;;
55224;SDS011;41091;49.400;8.684;2022-12-18T03:32:19;44.97;;;17.17;;
55224;SDS011;41091;49.400;8.684;2022-12-18T03:34:49;42.55;;;18.35;;
55224;SDS011;41091;49.400;8.684;2022-12-18T03:37:15;41.40;;;17.65;;
55224;SDS011;41091;49.400;8.684;2022-12-18T03:39:40;44.95;;;18.40;;
55224;SDS011;41091;49.400;8.684;2022-12-18T03:42:24;44.78;;;18.17;;
55224;SDS011;41091;49.400;8.684;2022-12-18T03:47:34;48.40;;;20.15;;
55224;SDS011;41091;49.400;8.684;2022-12-18T03:50:13;44.60;;;18.65;;
55224;SDS011;41091;49.400;8.684;2022-12-18T03:52:56;45.20;;;18.77;;
55224;SDS011;41091;49.400;8.684;2022-12-18T03:55:25;51.78;;;18.92;;
55224;SDS011;41091;49.400;8.684;2022-12-18T03:57:53;43.10;;;17.23;;
55224;SDS011;41091;49.400;8.684;2022-12-18T04:00:18;46.00;;;17.63;;
55224;SDS011;41091;49.400;8.684;2022-12-18T04:02:49;48.55;;;18.35;;
55224;SDS011;41091;49.400;8.684;2022-12-18T04:05:17;49.85;;;18.83;;
55224;SDS011;41091;49.400;8.684;2022-12-18T04:07:44;40.55;;;17.25;;
55224;SDS011;41091;49.400;8.684;2022-12-18T04:10:11;50.15;;;18.52;;
55224;SDS011;41091;49.400;8.684;2022-12-18T04:12:37;47.67;;;17.05;;
55224;SDS011;41091;49.400;8.684;2022-12-18T04:15:03;48.28;;;19.45;;
55224;SDS011;41091;49.400;8.684;2022-12-18T04:17:29;46.10;;;20.70;;
55224;SDS011;41091;49.400;8.684;2022-12-18T04:19:54;47.30;;;17.67;;
55224;SDS011;41091;49.400;8.684;2022-12-18T04:22:19;45.03;;;20.35;;
55224;SDS011;41091;49.400;8.684;2022-12-18T04:24:45;45.45;;;17.92;;
55224;SDS011;41091;49.400;8.684;2022-12-18T04:27:12;48.45;;;19.95;;
55224;SDS011;41091;49.400;8.684;2022-12-18T04:29:38;39.25;;;17.52;;
55224;SDS011;41091;49.400;8.684;2022-12-18T04:32:03;36.60;;;17.52;;
55224;SDS011;41091;49.400;8.684;2022-12-18T04:34:28;47.67;;;18.40;;
55224;SDS011;41091;49.400;8.684;2022-12-18T04:36:54;41.40;;;17.83;;
55224;SDS011;41091;49.400;8.684;2022-12-18T04:39:19;38.72;;;18.00;;
55224;SDS011;41091;49.400;8.684;2022-12-18T04:41:45;44.22;;;16.50;;
55224;SDS011;41091;49.400;8.684;2022-12-18T04:44:10;42.05;;;16.05;;
55224;SDS011;41091;49.400;8.684;2022-12-18T04:46:38;42.30;;;15.57;;
55224;SDS011;41091;49.400;8.684;2022-12-18T04:49:03;34.03;;;15.32;;
55224;SDS011;41091;49.400;8.684;2022-12-18T04:51:28;39.75;;;18.25;;
55224;SDS011;41091;49.400;8.684;2022-12-18T04:53:56;36.88;;;16.27;;
55224;SDS011;41091;49.400;8.684;2022-12-18T04:56:22;46.40;;;16.50;;
55224;SDS011;41091;49.400;8.684;2022-12-18T04:58:50;52.72;;;18.25;;
55224;SDS011;41091;49.400;8.684;2022-12-18T05:01:16;43.58;;;16.55;;
55224;SDS011;41091;49.400;8.684;2022-12-18T05:03:42;37.22;;;15.48;;
55224;SDS011;41091;49.400;8.684;2022-12-18T05:06:09;39.78;;;15.55;;
55224;SDS011;41091;49.400;8.684;2022-12-18T05:08:35;32.92;;;16.23;;
55224;SDS011;41091;49.400;8.684;2022-12-18T05:11:01;41.80;;;17.30;;
55224;SDS011;41091;49.400;8.684;2022-12-18T05:13:30;45.53;;;17.63;;
55224;SDS011;41091;49.400;8.684;2022-12-18T05:16:00;39.38;;;17.63;;
55224;SDS011;41091;49.400;8.684;2022-12-18T05:18:26;45.83;;;16.58;;
55224;SDS011;41091;49.400;8.684;2022-12-18T05:20:51;46.95;;;17.65;;
55224;SDS011;41091;49.400;8.684;2022-12-18T05:23:20;39.97;;;18.45;;
55224;SDS011;41091;49.400;8.684;2022-12-18T05:26:07;48.40;;;17.50;;
55224;SDS011;41091;49.400;8.684;2022-12-18T05:28:39;48.05;;;19.40;;
55224;SDS011;41091;49.400;8.684;2022-12-18T05:31:08;43.00;;;17.17;;
55224;SDS011;41091;49.400;8.684;2022-12-18T05:33:35;40.40;;;17.77;;
55224;SDS011;41091;49.400;8.684;2022-12-18T05:36:06;48.83;;;18.75;;
55224;SDS011;41091;49.400;8.684;2022-12-18T05:38:33;41.83;;;16.70;;
55224;SDS011;41091;49.400;8.684;2022-12-18T05:41:00;52.28;;;20.05;;
55224;SDS011;41091;49.400;8.684;2022-12-18T05:43:28;46.92;;;17.35;;
55224;SDS011;41091;49.400;8.684;2022-12-18T05:45:53;45.67;;;20.92;;
55224;SDS011;41091;49.400;8.684;2022-12-18T05:48:19;44.17;;;15.77;;
55224;SDS011;41091;49.400;8.684;2022-12-18T05:50:47;39.70;;;16.10;;
55224;SDS011;41091;49.400;8.684;2022-12-18T05:53:14;43.53;;;16.73;;
55224;SDS011;41091;49.400;8.684;2022-12-18T05:55:43;47.67;;;17.33;;
55224;SDS011;41091;49.400;8.684;2022-12-18T05:58:09;43.53;;;16.98;;
55224;SDS011;41091;49.400;8.684;2022-12-18T06:00:39;45.47;;;17.80;;
55224;SDS011;41091;49.400;8.684;2022-12-18T06:03:06;49.72;;;18.00;;
55224;SDS011;41091;49.400;8.684;2022-12-18T06:05:35;43.47;;;16.38;;
55224;SDS011;41091;49.400;8.684;2022-12-18T06:08:02;37.22;;;17.45;;
55224;SDS011;41091;49.400;8.684;2022-12-18T06:10:30;50.25;;;18.55;;
55224;SDS011;41091;49.400;8.684;2022-12-18T06:12:55;42.35;;;17.42;;
55224;SDS011;41091;49.400;8.684;2022-12-18T06:15:20;47.67;;;19.02;;
55224;SDS011;41091;49.400;8.684;2022-12-18T06:17:46;56.20;;;18.25;;
55224;SDS011;41091;49.400;8.684;2022-12-18T06:20:14;52.63;;;17.98;;
55224;SDS011;41091;49.400;8.684;2022-12-18T06:22:43;45.70;;;18.15;;
55224;SDS011;41091;49.400;8.684;2022-12-18T06:25:09;47.47;;;17.30;;
55224;SDS011;41091;49.400;8.684;2022-12-18T06:27:34;59.17;;;17.80;;
55224;SDS011;41091;49.400;8.684;2022-12-18T06:30:00;44.22;;;19.02;;
55224;SDS011;41091;49.400;8.684;2022-12-18T06:32:25;53.80;;;18.98;;
55224;SDS011;41091;49.400;8.684;2022-12-18T06:34:53;53.10;;;19.00;;
55224;SDS011;41091;49.400;8.684;2022-12-18T06:37:20;40.92;;;18.05;;
55224;SDS011;41091;49.400;8.684;2022-12-18T06:39:49;38.17;;;16.13;;
55224;SDS011;41091;49.400;8.684;2022-12-18T06:42:15;40.65;;;17.83;;
55224;SDS011;41091;49.400;8.684;2022-12-18T06:44:40;46.97;;;18.23;;
55224;SDS011;41091;49.400;8.684;2022-12-18T06:47:08;49.33;;;16.45;;
55224;SDS011;41091;49.400;8.684;2022-12-18T06:49:35;55.63;;;19.73;;
55224;SDS011;41091;49.400;8.684;2022-12-18T06:52:03;51.08;;;18.42;;
55224;SDS011;41091;49.400;8.684;2022-12-18T06:54:28;33.08;;;14.55;;
55224;SDS011;41091;49.400;8.684;2022-12-18T06:56:56;54.30;;;17.85;;
55224;SDS011;41091;49.400;8.684;2022-12-18T06:59:21;46.67;;;16.38;;
55224;SDS011;41091;49.400;8.684;2022-12-18T07:01:46;44.58;;;18.50;;
55224;SDS011;41091;49.400;8.684;2022-12-18T07:04:12;43.40;;;19.27;;
55224;SDS011;41091;49.400;8.684;2022-12-18T07:06:37;40.05;;;17.67;;
55224;SDS011;41091;49.400;8.684;2022-12-18T07:09:02;40.42;;;18.20;;
55224;SDS011;41091;49.400;8.684;2022-12-18T07:11:32;38.75;;;16.40;;
55224;SDS011;41091;49.400;8.684;2022-12-18T07:14:00;39.25;;;16.85;;
55224;SDS011;41091;49.400;8.684;2022-12-18T07:16:25;41.20;;;17.33;;
55224;SDS011;41091;49.400;8.684;2022-12-18T07:18:51;34.78;;;16.17;;
55224;SDS011;41091;49.400;8.684;2022-12-18T07:21:23;48.92;;;15.82;;
55224;SDS011;41091;49.400;8.684;2022-12-18T07:23:49;45.95;;;16.30;;
55224;SDS011;41091;49.400;8.684;2022-12-18T07:26:17;36.95;;;15.73;;
55224;SDS011;41091;49.400;8.684;2022-12-18T07:28:44;30.33;;;15.40;;
55224;SDS011;41091;49.400;8.684;2022-12-18T07:31:13;40.17;;;16.75;;
55224;SDS011;41091;49.400;8.684;2022-12-18T07:33:40;41.80;;;19.80;;
55224;SDS011;41091;49.400;8.684;2022-12-18T07:36:06;42.17;;;18.52;;
55224;SDS011;41091;49.400;8.684;2022-12-18T07:38:35;39.58;;;15.43;;
55224;SDS011;41091;49.400;8.684;2022-12-18T07:41:04;31.55;;;14.75;;
55224;SDS011;41091;49.400;8.684;2022-12-18T07:43:31;37.22;;;14.88;;
55224;SDS011;41091;49.400;8.684;2022-12-18T07:46:02;41.22;;;15.90;;
55224;SDS011;41091;49.400;8.684;2022-12-18T07:48:28;38.53;;;16.00;;
55224;SDS011;41091;49.400;8.684;2022-12-18T07:51:03;36.33;;;17.60;;
55224;SDS011;41091;49.400;8.684;2022-12-18T07:53:29;34.58;;;16.13;;
55224;SDS011;41091;49.400;8.684;2022-12-18T07:56:02;42.83;;;15.77;;
55224;SDS011;41091;49.400;8.684;2022-12-18T07:58:30;36.78;;;15.30;;
55224;SDS011;41091;49.400;8.684;2022-12-18T08:01:17;41.60;;;17.20;;
55224;SDS011;41091;49.400;8.684;2022-12-18T08:03:43;38.78;;;16.00;;
55224;SDS011;41091;49.400;8.684;2022-12-18T08:06:09;32.50;;;14.80;;
55224;SDS011;41091;49.400;8.684;2022-12-18T08:08:37;39.47;;;15.93;;
55224;SDS011;41091;49.400;8.684;2022-12-18T08:11:02;41.33;;;15.93;;
55224;SDS011;41091;49.400;8.684;2022-12-18T08:13:28;41.85;;;17.38;;
55224;SDS011;41091;49.400;8.684;2022-12-18T08:18:26;34.17;;;14.63;;
55224;SDS011;41091;49.400;8.684;2022-12-18T08:20:51;29.10;;;14.85;;
55224;SDS011;41091;49.400;8.684;2022-12-18T08:23:17;39.50;;;16.13;;
55224;SDS011;41091;49.400;8.684;2022-12-18T08:25:42;36.10;;;16.35;;
55224;SDS011;41091;49.400;8.684;2022-12-18T08:28:07;37.58;;;16.58;;
55224;SDS011;41091;49.400;8.684;2022-12-18T08:30:35;43.85;;;15.80;;
55224;SDS011;41091;49.400;8.684;2022-12-18T08:33:03;32.50;;;13.88;;
55224;SDS011;41091;49.400;8.684;2022-12-18T08:35:29;44.65;;;16.75;;
55224;SDS011;41091;49.400;8.684;2022-12-18T08:37:59;29.08;;;15.13;;
55224;SDS011;41091;49.400;8.684;2022-12-18T08:40:24;37.80;;;15.75;;
55224;SDS011;41091;49.400;8.684;2022-12-18T08:42:49;30.95;;;13.63;;
55224;SDS011;41091;49.400;8.684;2022-12-18T08:45:41;29.67;;;14.68;;
55224;SDS011;41091;49.400;8.684;2022-12-18T08:48:06;31.33;;;15.35;;
55224;SDS011;41091;49.400;8.684;2022-12-18T08:50:31;28.15;;;13.38;;
55224;SDS011;41091;49.400;8.684;2022-12-18T08:52:57;31.33;;;15.15;;
55224;SDS011;41091;49.400;8.684;2022-12-18T08:55:25;29.63;;;13.85;;
55224;SDS011;41091;49.400;8.684;2022-12-18T08:57:50;29.75;;;13.80;;
55224;SDS011;41091;49.400;8.684;2022-12-18T09:00:18;32.83;;;15.15;;
55224;SDS011;41091;49.400;8.684;2022-12-18T09:02:43;37.38;;;16.80;;
55224;SDS011;41091;49.400;8.684;2022-12-18T09:05:08;31.38;;;15.85;;
55224;SDS011;41091;49.400;8.684;2022-12-18T09:07:34;33.10;;;14.25;;
55224;SDS011;41091;49.400;8.684;2022-12-18T09:10:00;33.17;;;17.00;;
55224;SDS011;41091;49.400;8.684;2022-12-18T09:12:27;34.30;;;14.93;;
55224;SDS011;41091;49.400;8.684;2022-12-18T09:14:53;39.40;;;14.65;;
55224;SDS011;41091;49.400;8.684;2022-12-18T09:17:18;35.08;;;15.30;;
55224;SDS011;41091;49.400;8.684;2022-12-18T09:19:43;36.00;;;15.80;;
55224;SDS011;41091;49.400;8.684;2022-12-18T09:22:09;27.83;;;16.08;;
55224;SDS011;41091;49.400;8.684;2022-12-18T09:24:37;31.42;;;14.13;;
55224;SDS011;41091;49.400;8.684;2022-12-18T09:27:02;28.45;;;15.05;;
55224;SDS011;41091;49.400;8.684;2022-12-18T09:29:27;32.50;;;15.65;;
55224;SDS011;41091;49.400;8.684;2022-12-18T09:31:53;35.90;;;15.82;;
55224;SDS011;41091;49.400;8.684;2022-12-18T09:34:18;39.53;;;16.27;;
55224;SDS011;41091;49.400;8.684;2022-12-18T09:36:46;39.67;;;16.40;;
55224;SDS011;41091;49.400;8.684;2022-12-18T09:39:12;32.92;;;15.60;;
55224;SDS011;41091;49.400;8.684;2022-12-18T09:41:42;33.25;;;14.45;;
55224;SDS011;41091;49.400;8.684;2022-12-18T09:46:47;29.27;;;14.40;;
55224;SDS011;41091;49.400;8.684;2022-12-18T09:49:23;29.33;;;15.63;;
55224;SDS011;41091;49.400;8.684;2022-12-18T09:54:31;35.67;;;16.70;;
55224;SDS011;41091;49.400;8.684;2022-12-18T09:57:00;37.72;;;16.48;;
55224;SDS011;41091;49.400;8.684;2022-12-18T09:59:34;38.08;;;17.55;;
55224;SDS011;41091;49.400;8.684;2022-12-18T10:04:38;38.70;;;16.23;;
55224;SDS011;41091;49.400;8.684;2022-12-18T10:07:07;32.65;;;16.85;;
55224;SDS011;41091;49.400;8.684;2022-12-18T10:09:54;34.15;;;16.20;;
55224;SDS011;41091;49.400;8.684;2022-12-18T10:15:24;30.83;;;15.07;;
55224;SDS011;41091;49.400;8.684;2022-12-18T10:18:02;30.65;;;14.63;;
55224;SDS011;41091;49.400;8.684;2022-12-18T10:20:51;27.65;;;14.77;;
55224;SDS011;41091;49.400;8.684;2022-12-18T10:28:25;33.00;;;15.20;;
55224;SDS011;41091;49.400;8.684;2022-12-18T10:30:55;38.35;;;17.17;;
55224;SDS011;41091;49.400;8.684;2022-12-18T10:33:22;33.65;;;15.30;;
55224;SDS011;41091;49.400;8.684;2022-12-18T10:35:49;34.85;;;16.30;;
55224;SDS011;41091;49.400;8.684;2022-12-18T10:38:22;35.97;;;18.23;;
55224;SDS011;41091;49.400;8.684;2022-12-18T10:43:29;42.67;;;17.45;;
55224;SDS011;41091;49.400;8.684;2022-12-18T10:45:59;39.80;;;18.15;;
55224;SDS011;41091;49.400;8.684;2022-12-18T10:51:33;40.88;;;17.27;;
55224;SDS011;41091;49.400;8.684;2022-12-18T10:56:26;34.42;;;17.13;;
55224;SDS011;41091;49.400;8.684;2022-12-18T10:58:56;29.40;;;15.00;;
55224;SDS011;41091;49.400;8.684;2022-12-18T11:01:22;39.38;;;17.25;;
55224;SDS011;41091;49.400;8.684;2022-12-18T11:06:23;40.75;;;16.48;;
55224;SDS011;41091;49.400;8.684;2022-12-18T11:08:59;27.60;;;15.13;;
55224;SDS011;41091;49.400;8.684;2022-12-18T11:11:52;33.78;;;16.67;;
55224;SDS011;41091;49.400;8.684;2022-12-18T11:14:21;36.60;;;16.80;;
55224;SDS011;41091;49.400;8.684;2022-12-18T11:16:48;36.20;;;16.92;;
55224;SDS011;41091;49.400;8.684;2022-12-18T11:19:19;36.83;;;16.83;;
55224;SDS011;41091;49.400;8.684;2022-12-18T11:21:49;30.55;;;16.20;;
55224;SDS011;41091;49.400;8.684;2022-12-18T11:24:36;34.45;;;16.65;;
55224;SDS011;41091;49.400;8.684;2022-12-18T11:27:02;31.98;;;17.02;;
55224;SDS011;41091;49.400;8.684;2022-12-18T11:29:39;35.78;;;17.50;;
55224;SDS011;41091;49.400;8.684;2022-12-18T11:40:52;36.53;;;16.88;;
55224;SDS011;41091;49.400;8.684;2022-12-18T11:43:24;37.83;;;17.33;;
55224;SDS011;41091;49.400;8.684;2022-12-18T11:46:03;34.63;;;16.13;;
55224;SDS011;41091;49.400;8.684;2022-12-18T11:48:37;35.67;;;16.58;;
55224;SDS011;41091;49.400;8.684;2022-12-18T11:51:09;36.72;;;16.85;;
55224;SDS011;41091;49.400;8.684;2022-12-18T11:53:38;38.38;;;17.58;;
55224;SDS011;41091;49.400;8.684;2022-12-18T11:59:02;39.10;;;17.33;;
55224;SDS011;41091;49.400;8.684;2022-12-18T12:09:23;37.20;;;15.77;;
55224;SDS011;41091;49.400;8.684;2022-12-18T12:12:30;41.28;;;17.80;;
55224;SDS011;41091;49.400;8.684;2022-12-18T12:31:32;41.67;;;17.85;;
55224;SDS011;41091;49.400;8.684;2022-12-18T12:34:22;42.30;;;16.63;;
55224;SDS011;41091;49.400;8.684;2022-12-18T12:37:00;36.50;;;17.58;;
55224;SDS011;41091;49.400;8.684;2022-12-18T12:39:46;36.35;;;16.23;;
55224;SDS011;41091;49.400;8.684;2022-12-18T12:45:21;45.65;;;17.73;;
55224;SDS011;41091;49.400;8.684;2022-12-18T12:47:51;49.20;;;17.95;;
55224;SDS011;41091;49.400;8.684;2022-12-18T12:50:18;35.85;;;16.15;;
55224;SDS011;41091;49.400;8.684;2022-12-18T12:52:50;41.80;;;16.77;;
55224;SDS011;41091;49.400;8.684;2022-12-18T12:55:26;39.17;;;15.77;;
55224;SDS011;41091;49.400;8.684;2022-12-18T12:58:00;41.13;;;16.75;;
55224;SDS011;41091;49.400;8.684;2022-12-18T13:00:45;38.47;;;16.58;;
55224;SDS011;41091;49.400;8.684;2022-12-18T13:03:31;40.28;;;18.52;;
55224;SDS011;41091;49.400;8.684;2022-12-18T13:08:51;37.05;;;15.65;;
55224;SDS011;41091;49.400;8.684;2022-12-18T13:14:38;31.83;;;14.48;;
55224;SDS011;41091;49.400;8.684;2022-12-18T13:19:48;35.33;;;15.85;;
55224;SDS011;41091;49.400;8.684;2022-12-18T13:28:13;35.45;;;16.85;;
55224;SDS011;41091;49.400;8.684;2022-12-18T13:35:40;32.28;;;14.65;;
55224;SDS011;41091;49.400;8.684;2022-12-18T13:38:22;41.72;;;17.77;;
55224;SDS011;41091;49.400;8.684;2022-12-18T13:40:55;34.90;;;15.40;;
55224;SDS011;41091;49.400;8.684;2022-12-18T13:48:18;42.17;;;16.88;;
55224;SDS011;41091;49.400;8.684;2022-12-18T13:50:57;34.67;;;15.45;;
55224;SDS011;41091;49.400;8.684;2022-12-18T13:54:00;34.08;;;16.20;;
55224;SDS011;41091;49.400;8.684;2022-12-18T13:56:28;34.78;;;14.60;;
55224;SDS011;41091;49.400;8.684;2022-12-18T13:59:14;44.25;;;16.50;;
55224;SDS011;41091;49.400;8.684;2022-12-18T14:01:55;40.53;;;15.73;;
55224;SDS011;41091;49.400;8.684;2022-12-18T14:04:29;41.20;;;16.70;;
55224;SDS011;41091;49.400;8.684;2022-12-18T14:07:01;32.88;;;15.27;;
55224;SDS011;41091;49.400;8.684;2022-12-18T14:09:30;38.15;;;16.33;;
55224;SDS011;41091;49.400;8.684;2022-12-18T14:12:00;43.53;;;17.65;;
55224;SDS011;41091;49.400;8.684;2022-12-18T14:14:44;35.70;;;15.85;;
55224;SDS011;41091;49.400;8.684;2022-12-18T14:17:12;37.35;;;14.85;;
55224;SDS011;41091;49.400;8.684;2022-12-18T14:19:46;40.13;;;17.15;;
55224;SDS011;41091;49.400;8.684;2022-12-18T14:22:14;42.75;;;14.52;;
55224;SDS011;41091;49.400;8.684;2022-12-18T14:24:46;37.40;;;14.65;;
55224;SDS011;41091;49.400;8.684;2022-12-18T14:27:17;32.97;;;15.82;;
55224;SDS011;41091;49.400;8.684;2022-12-18T14:29:49;33.28;;;14.75;;
55224;SDS011;41091;49.400;8.684;2022-12-18T14:32:15;37.40;;;16.42;;
55224;SDS011;41091;49.400;8.684;2022-12-18T14:34:52;43.25;;;16.05;;
55224;SDS011;41091;49.400;8.684;2022-12-18T14:37:27;36.50;;;16.17;;
55224;SDS011;41091;49.400;8.684;2022-12-18T14:39:53;36.08;;;16.23;;
55224;SDS011;41091;49.400;8.684;2022-12-18T14:42:22;36.45;;;14.73;;
55224;SDS011;41091;49.400;8.684;2022-12-18T14:44:52;31.30;;;14.30;;
55224;SDS011;41091;49.400;8.684;2022-12-18T14:47:56;39.85;;;15.63;;
55224;SDS011;41091;49.400;8.684;2022-12-18T14:50:24;38.45;;;15.50;;
55224;SDS011;41091;49.400;8.684;2022-12-18T14:52:53;43.60;;;16.05;;
55224;SDS011;41091;49.400;8.684;2022-12-18T14:55:20;40.83;;;17.98;;
55224;SDS011;41091;49.400;8.684;2022-12-18T14:57:49;50.25;;;17.33;;
55224;SDS011;41091;49.400;8.684;2022-12-18T15:00:20;40.65;;;16.73;;
55224;SDS011;41091;49.400;8.684;2022-12-18T15:02:48;41.72;;;16.27;;
55224;SDS011;41091;49.400;8.684;2022-12-18T15:07:45;35.65;;;16.20;;
55224;SDS011;41091;49.400;8.684;2022-12-18T15:10:19;38.80;;;15.02;;
55224;SDS011;41091;49.400;8.684;2022-12-18T15:25:42;44.78;;;18.05;;
55224;SDS011;41091;49.400;8.684;2022-12-18T15:28:15;37.08;;;16.42;;
55224;SDS011;41091;49.400;8.684;2022-12-18T15:33:32;38.38;;;16.73;;
55224;SDS011;41091;49.400;8.684;2022-12-18T15:36:00;39.17;;;16.73;;
55224;SDS011;41091;49.400;8.684;2022-12-18T15:38:26;37.80;;;16.30;;
55224;SDS011;41091;49.400;8.684;2022-12-18T15:40:52;46.95;;;17.95;;
55224;SDS011;41091;49.400;8.684;2022-12-18T15:43:18;42.97;;;17.48;;
55224;SDS011;41091;49.400;8.684;2022-12-18T15:46:20;40.08;;;17.98;;
55224;SDS011;41091;49.400;8.684;2022-12-18T15:48:53;37.28;;;15.07;;
55224;SDS011;41091;49.400;8.684;2022-12-18T15:53:45;37.40;;;15.57;;
55224;SDS011;41091;49.400;8.684;2022-12-18T15:56:14;41.78;;;17.25;;
55224;SDS011;41091;49.400;8.684;2022-12-18T15:58:59;38.90;;;15.55;;
55224;SDS011;41091;49.400;8.684;2022-12-18T16:01:26;35.15;;;14.25;;
55224;SDS011;41091;49.400;8.684;2022-12-18T16:03:52;43.97;;;16.38;;
55224;SDS011;41091;49.400;8.684;2022-12-18T16:06:21;38.10;;;15.55;;
55224;SDS011;41091;49.400;8.684;2022-12-18T16:08:49;31.75;;;14.48;;
55224;SDS011;41091;49.400;8.684;2022-12-18T16:11:24;38.17;;;16.23;;
55224;SDS011;41091;49.400;8.684;2022-12-18T16:16:43;38.78;;;14.93;;
55224;SDS011;41091;49.400;8.684;2022-12-18T16:19:12;35.38;;;17.23;;
55224;SDS011;41091;49.400;8.684;2022-12-18T16:21:41;33.95;;;15.48;;
55224;SDS011;41091;49.400;8.684;2022-12-18T16:24:09;34.92;;;15.35;;
55224;SDS011;41091;49.400;8.684;2022-12-18T16:26:41;36.17;;;14.13;;
55224;SDS011;41091;49.400;8.684;2022-12-18T16:29:07;36.05;;;15.73;;
55224;SDS011;41091;49.400;8.684;2022-12-18T16:31:34;42.38;;;16.92;;
55224;SDS011;41091;49.400;8.684;2022-12-18T16:34:18;36.38;;;14.75;;
55224;SDS011;41091;49.400;8.684;2022-12-18T16:36:48;43.03;;;18.20;;
55224;SDS011;41091;49.400;8.684;2022-12-18T16:39:18;34.55;;;16.25;;
55224;SDS011;41091;49.400;8.684;2022-12-18T16:41:44;46.92;;;19.55;;
55224;SDS011;41091;49.400;8.684;2022-12-18T16:44:12;47.60;;;19.85;;
55224;SDS011;41091;49.400;8.684;2022-12-18T16:46:39;38.35;;;16.90;;
55224;SDS011;41091;49.400;8.684;2022-12-18T16:49:04;36.75;;;15.45;;
55224;SDS011;41091;49.400;8.684;2022-12-18T16:51:34;36.53;;;15.30;;
55224;SDS011;41091;49.400;8.684;2022-12-18T16:54:00;33.45;;;17.02;;
55224;SDS011;41091;49.400;8.684;2022-12-18T16:56:25;37.75;;;16.45;;
55224;SDS011;41091;49.400;8.684;2022-12-18T16:58:54;35.65;;;15.60;;